Time;durP1;ratioP1;P1;durP2;ratioP2;P2;SDS_P1;SDS_P2;PMS_P1;PMS_P2;Temp;Humidity;BMP_temperature;BMP_pressure;BME280_temperature;BME280_humidity;BME280_pressure;Samples;Min_cycle;Max_cycle;Signal;HPM_P1;HPM_P2
2023/09/03 00:01:06;;;;;;;8.32;6.88;;;16.40;99.90;;;;;;4995965;28;36005;-79
2023/09/03 00:03:32;;;;;;;10.85;7.88;;;16.40;99.90;;;;;;4982218;28;37861;-79
2023/09/03 00:05:58;;;;;;;8.73;7.07;;;16.40;99.90;;;;;;4966763;28;37866;-79
2023/09/03 00:08:24;;;;;;;7.70;7.00;;;16.40;99.90;;;;;;4966016;28;38221;-79
2023/09/03 00:10:54;;;;;;;8.10;7.40;;;16.30;99.90;;;;;;5000503;28;36294;-79
2023/09/03 00:13:21;;;;;;;8.07;6.93;;;16.30;99.90;;;;;;4962265;28;39605;-79
2023/09/03 00:15:47;;;;;;;8.02;6.18;;;16.40;99.90;;;;;;4967462;28;38975;-79
2023/09/03 00:18:14;;;;;;;7.63;6.40;;;16.40;99.90;;;;;;4994710;28;37728;-79
2023/09/03 00:20:53;;;;;;;6.63;6.03;;;16.40;99.90;;;;;;4966067;28;36806;-79
2023/09/03 00:23:19;;;;;;;8.27;6.35;;;16.40;99.90;;;;;;4968000;28;41905;-80
2023/09/03 00:25:45;;;;;;;6.45;5.53;;;16.30;99.90;;;;;;4991493;28;36956;-79
2023/09/03 00:28:11;;;;;;;7.97;6.43;;;16.30;99.90;;;;;;4967382;28;37709;-79
2023/09/03 00:30:37;;;;;;;8.55;5.65;;;16.20;99.90;;;;;;4964422;28;36479;-80
2023/09/03 00:33:06;;;;;;;8.32;5.53;;;16.20;99.90;;;;;;4966179;28;38975;-80
2023/09/03 00:35:33;;;;;;;6.25;5.65;;;16.20;99.90;;;;;;5002201;28;38664;-80
2023/09/03 00:37:59;;;;;;;10.93;6.50;;;16.20;99.90;;;;;;4964518;28;36505;-79
2023/09/03 00:40:26;;;;;;;6.40;5.80;;;16.20;99.90;;;;;;4960342;28;36624;-79
2023/09/03 00:42:52;;;;;;;9.68;6.00;;;16.20;99.90;;;;;;4957569;28;38701;-79
2023/09/03 00:45:18;;;;;;;7.78;5.90;;;16.20;99.90;;;;;;4979285;28;37075;-79
2023/09/03 00:47:45;;;;;;;5.97;5.38;;;16.20;99.90;;;;;;4963494;28;37201;-79
2023/09/03 00:50:11;;;;;;;9.00;5.97;;;16.20;99.90;;;;;;4978451;28;36194;-79
2023/09/03 00:52:38;;;;;;;6.35;5.75;;;16.20;99.90;;;;;;4993292;28;38009;-79
2023/09/03 00:55:04;;;;;;;8.23;5.95;;;16.20;99.90;;;;;;4996435;28;37300;-79
2023/09/03 00:57:30;;;;;;;6.10;5.50;;;16.20;99.90;;;;;;4967625;28;38459;-78
2023/09/03 00:59:57;;;;;;;5.50;5.00;;;16.10;99.90;;;;;;4970138;28;38409;-79
2023/09/03 01:02:24;;;;;;;5.93;5.18;;;16.10;99.90;;;;;;5339884;23;38488;-77
2023/09/03 01:04:50;;;;;;;5.90;5.20;;;16.10;99.90;;;;;;4958929;28;39847;-79
2023/09/03 01:07:17;;;;;;;6.03;5.22;;;16.00;99.90;;;;;;4969364;28;36862;-79
2023/09/03 01:09:43;;;;;;;6.55;5.95;;;16.00;99.90;;;;;;4972487;28;36976;-78
2023/09/03 01:12:19;;;;;;;6.60;5.35;;;15.90;99.90;;;;;;4969404;28;38583;-79
2023/09/03 01:15:17;;;;;;;6.47;5.45;;;15.80;99.90;;;;;;4979296;28;39961;-79
2023/09/03 01:18:01;;;;;;;5.70;4.70;;;15.80;99.90;;;;;;4993763;28;47152;-82
2023/09/03 01:20:32;;;;;;;5.50;4.97;;;15.80;99.90;;;;;;4978737;28;47468;-79
2023/09/03 01:23:07;;;;;;;5.65;5.13;;;15.80;99.90;;;;;;4989163;28;39114;-80
2023/09/03 01:25:52;;;;;;;5.95;5.35;;;15.70;99.90;;;;;;4987996;28;48573;-80
2023/09/03 01:28:31;;;;;;;6.40;5.40;;;15.70;99.90;;;;;;4991426;28;36581;-81
2023/09/03 01:31:10;;;;;;;6.00;5.50;;;15.70;99.90;;;;;;4985677;28;37010;-80
2023/09/03 01:33:39;;;;;;;7.72;5.65;;;15.60;99.90;;;;;;4993832;28;47111;-79
2023/09/03 01:36:07;;;;;;;6.82;6.13;;;15.60;99.90;;;;;;4980735;28;38440;-80
2023/09/03 01:38:33;;;;;;;6.55;5.70;;;15.50;99.90;;;;;;4982363;28;36675;-79
2023/09/03 01:41:01;;;;;;;6.97;6.05;;;15.50;99.90;;;;;;4982945;28;36013;-79
2023/09/03 01:43:27;;;;;;;7.97;6.35;;;15.40;99.90;;;;;;4977475;28;49090;-79
2023/09/03 01:46:06;;;;;;;7.03;6.00;;;15.40;99.90;;;;;;4983464;28;37634;-78
2023/09/03 01:48:38;;;;;;;9.75;7.47;;;15.30;99.90;;;;;;4983803;28;48460;-79
2023/09/03 01:51:28;;;;;;;7.38;6.63;;;15.30;99.90;;;;;;4980625;28;37344;-78
2023/09/03 01:54:13;;;;;;;8.27;6.63;;;15.20;99.90;;;;;;4959776;28;38978;-79
2023/09/03 01:56:46;;;;;;;8.52;6.88;;;15.20;99.90;;;;;;4986425;28;47126;-80
2023/09/03 01:59:35;;;;;;;;;;;15.20;99.90;;;;;;4977050;28;37872;-81
2023/09/03 02:02:02;;;;;;;8.52;6.57;;;15.20;99.90;;;;;;4977022;28;37865;-79
2023/09/03 02:04:28;;;;;;;11.15;7.53;;;15.20;99.90;;;;;;4969203;28;47024;-79
2023/09/03 02:06:54;;;;;;;7.97;7.18;;;15.20;99.90;;;;;;4974192;28;36854;-82
2023/09/03 02:09:20;;;;;;;8.75;6.80;;;15.10;99.90;;;;;;4995309;28;37852;-79
2023/09/03 02:11:47;;;;;;;7.32;6.30;;;15.10;99.90;;;;;;4973465;28;36386;-79
2023/09/03 02:14:13;;;;;;;8.85;7.28;;;15.10;99.90;;;;;;4986495;28;39223;-79
2023/09/03 02:16:39;;;;;;;10.52;8.00;;;15.10;99.90;;;;;;4976644;28;39334;-79
2023/09/03 02:19:05;;;;;;;8.05;6.95;;;15.10;99.90;;;;;;4987903;28;36699;-80
2023/09/03 02:21:31;;;;;;;10.25;7.72;;;15.10;99.90;;;;;;4982923;28;36961;-79
2023/09/03 02:23:57;;;;;;;7.82;6.72;;;15.10;99.90;;;;;;4974854;28;38978;-78
2023/09/03 02:26:23;;;;;;;7.28;6.50;;;15.10;99.90;;;;;;4973350;28;39509;-79
2023/09/03 02:28:49;;;;;;;9.18;6.45;;;15.10;99.90;;;;;;4988723;28;36880;-79
2023/09/03 02:31:16;;;;;;;8.27;7.47;;;15.00;99.90;;;;;;4990584;28;36241;-80
2023/09/03 02:33:42;;;;;;;8.52;7.50;;;15.00;99.90;;;;;;4978605;28;39907;-80
2023/09/03 02:36:08;;;;;;;8.68;7.35;;;15.00;99.90;;;;;;4982317;28;38821;-80
2023/09/03 02:38:34;;;;;;;8.35;7.47;;;15.10;99.90;;;;;;4965126;28;38384;-80
2023/09/03 02:41:00;;;;;;;11.02;8.32;;;15.00;99.90;;;;;;4966912;28;37959;-83
2023/09/03 02:43:26;;;;;;;8.98;8.00;;;15.00;99.90;;;;;;4966387;28;42255;-79
2023/09/03 02:45:52;;;;;;;7.75;7.03;;;15.00;99.90;;;;;;4979050;28;37155;-81
2023/09/03 02:48:18;;;;;;;7.32;6.60;;;14.90;99.90;;;;;;4978711;28;37778;-80
2023/09/03 02:50:45;;;;;;;7.82;7.10;;;14.90;99.90;;;;;;4974979;28;37051;-80
2023/09/03 02:53:11;;;;;;;7.38;6.68;;;14.90;99.90;;;;;;4975960;28;39969;-80
2023/09/03 02:55:37;;;;;;;8.50;6.68;;;14.90;99.90;;;;;;4980000;28;38264;-82
2023/09/03 02:58:03;;;;;;;7.93;7.22;;;14.90;99.90;;;;;;4981328;28;36827;-80
2023/09/03 03:00:29;;;;;;;7.60;6.90;;;14.80;99.90;;;;;;4967192;28;37307;-80
2023/09/03 03:02:55;;;;;;;7.82;7.03;;;14.80;99.90;;;;;;4963948;28;37970;-81
2023/09/03 03:05:21;;;;;;;8.13;7.22;;;14.80;99.90;;;;;;4970810;28;38633;-82
2023/09/03 03:07:48;;;;;;;7.40;6.72;;;14.70;99.90;;;;;;4989328;28;36708;-81
2023/09/03 03:10:14;;;;;;;8.55;6.90;;;14.80;99.90;;;;;;4958218;28;35956;-79
2023/09/03 03:12:44;;;;;;;9.45;8.45;;;14.70;99.90;;;;;;4973796;28;39132;-78
2023/09/03 03:15:10;;;;;;;8.30;7.40;;;14.70;99.90;;;;;;4985942;28;38023;-79
2023/09/03 03:17:37;;;;;;;8.52;7.60;;;14.70;99.90;;;;;;4991886;28;36730;-76
2023/09/03 03:20:03;;;;;;;8.65;7.80;;;14.70;99.90;;;;;;4985044;28;36987;-79
2023/09/03 03:22:29;;;;;;;8.60;7.75;;;14.70;99.90;;;;;;4988417;28;38518;-81
2023/09/03 03:24:55;;;;;;;8.65;7.72;;;14.70;99.90;;;;;;4970319;28;38412;-79
2023/09/03 03:27:23;;;;;;;8.80;7.53;;;14.70;99.90;;;;;;4967343;28;38979;-79
2023/09/03 03:29:52;;;;;;;8.45;7.63;;;14.70;99.90;;;;;;4979163;28;37075;-80
2023/09/03 03:32:21;;;;;;;8.45;7.40;;;14.60;99.90;;;;;;4973270;28;37679;-78
2023/09/03 03:34:47;;;;;;;9.93;7.65;;;14.60;99.90;;;;;;4979172;28;37408;-81
2023/09/03 03:37:13;;;;;;;10.68;7.43;;;14.60;99.90;;;;;;4973840;28;37524;-79
2023/09/03 03:39:39;;;;;;;9.50;7.95;;;14.60;99.90;;;;;;4982537;28;36763;-79
2023/09/03 03:42:05;;;;;;;9.80;8.30;;;14.60;99.90;;;;;;4969203;28;36851;-79
2023/09/03 03:44:31;;;;;;;11.32;8.82;;;14.60;99.90;;;;;;4988313;28;38158;-80
2023/09/03 03:46:57;;;;;;;10.95;8.95;;;14.60;99.90;;;;;;4973304;28;38044;-80
2023/09/03 03:49:24;;;;;;;9.52;8.52;;;14.60;99.90;;;;;;4993638;28;36418;-79
2023/09/03 03:51:50;;;;;;;9.30;8.38;;;14.60;99.90;;;;;;4976481;28;37773;-79
2023/09/03 03:54:16;;;;;;;9.57;8.35;;;14.60;99.90;;;;;;4999141;28;38139;-80
2023/09/03 03:56:42;;;;;;;10.65;9.55;;;14.50;99.90;;;;;;4988563;28;36529;-79
2023/09/03 03:59:08;;;;;;;9.10;8.18;;;14.50;99.90;;;;;;4975051;28;36383;-80
2023/09/03 04:01:34;;;;;;;10.40;9.23;;;14.50;99.90;;;;;;4984428;28;39337;-78
2023/09/03 04:04:00;;;;;;;12.63;10.25;;;14.50;99.90;;;;;;4974187;28;39320;-78
2023/09/03 04:06:27;;;;;;;11.32;9.68;;;14.50;99.90;;;;;;4966026;28;40126;-77
2023/09/03 04:08:54;;;;;;;10.25;9.23;;;14.50;99.90;;;;;;4999598;28;37467;-78
2023/09/03 04:11:23;;;;;;;11.07;9.10;;;14.50;99.90;;;;;;4990894;28;37591;-80
2023/09/03 04:13:49;;;;;;;13.55;10.23;;;14.50;99.90;;;;;;4990117;28;38684;-80
2023/09/03 04:16:17;;;;;;;12.20;10.60;;;14.50;99.90;;;;;;4974051;28;38099;-79
2023/09/03 04:18:44;;;;;;;14.93;10.15;;;14.50;99.90;;;;;;4992322;28;36371;-79
2023/09/03 04:21:11;;;;;;;10.55;9.52;;;14.40;99.90;;;;;;4987110;28;39156;-81
2023/09/03 04:23:38;;;;;;;11.43;10.32;;;14.50;99.90;;;;;;4976850;28;38128;-78
2023/09/03 04:26:09;;;;;;;12.25;10.98;;;14.50;99.90;;;;;;4978608;28;38286;-79
2023/09/03 04:28:35;;;;;;;12.88;11.40;;;14.50;99.90;;;;;;4967125;28;36323;-81
2023/09/03 04:31:08;;;;;;;13.85;11.25;;;14.50;99.90;;;;;;4978653;28;39440;-76
2023/09/03 04:33:34;;;;;;;;;;;14.60;99.90;;;;;;4972932;28;38446;-79
2023/09/03 04:36:02;;;;;;;14.85;11.68;;;14.60;99.90;;;;;;4974375;28;37938;-79
2023/09/03 04:38:29;;;;;;;15.10;11.57;;;14.60;99.90;;;;;;4968446;28;47442;-80
2023/09/03 04:40:56;;;;;;;10.98;9.88;;;14.60;99.90;;;;;;4966004;28;38211;-80
2023/09/03 04:43:23;;;;;;;13.88;10.95;;;14.60;99.90;;;;;;4963364;28;37134;-79
2023/09/03 04:45:52;;;;;;;15.57;11.05;;;14.60;99.90;;;;;;4976674;28;37817;-81
2023/09/03 04:48:19;;;;;;;16.45;11.60;;;14.60;99.90;;;;;;4979275;28;37833;-80
2023/09/03 04:50:46;;;;;;;14.88;11.85;;;14.60;99.90;;;;;;4971746;28;38789;-80
2023/09/03 04:53:12;;;;;;;14.75;11.85;;;14.60;99.90;;;;;;4996910;28;38470;-79
2023/09/03 04:55:39;;;;;;;13.27;11.23;;;14.60;99.90;;;;;;4976125;28;38467;-78
2023/09/03 04:58:05;;;;;;;12.65;10.70;;;14.60;99.90;;;;;;4964502;28;37417;-78
2023/09/03 05:00:32;;;;;;;12.70;11.40;;;14.60;99.90;;;;;;4972886;28;38944;-79
2023/09/03 05:02:59;;;;;;;14.52;11.65;;;14.60;99.90;;;;;;4978201;28;37270;-79
2023/09/03 05:05:25;;;;;;;13.00;11.07;;;14.50;99.90;;;;;;4979347;28;38098;-79
2023/09/03 05:07:51;;;;;;;13.23;11.18;;;14.60;99.90;;;;;;4976691;28;38461;-79
2023/09/03 05:10:18;;;;;;;12.70;11.40;;;14.60;99.90;;;;;;4967754;28;37864;-79
2023/09/03 05:12:44;;;;;;;14.30;11.40;;;14.60;99.90;;;;;;4982431;28;38422;-80
2023/09/03 05:15:13;;;;;;;12.48;11.18;;;14.60;99.90;;;;;;4967889;28;38503;-79
2023/09/03 05:17:40;;;;;;;12.52;11.00;;;14.60;99.90;;;;;;4984733;28;36556;-80
2023/09/03 05:20:11;;;;;;;12.35;10.85;;;14.50;99.90;;;;;;4974501;28;40003;-80
2023/09/03 05:22:40;;;;;;;12.93;11.48;;;14.60;99.90;;;;;;4970073;28;39183;-79
2023/09/03 05:25:07;;;;;;;12.52;11.23;;;14.50;99.90;;;;;;4981988;28;37471;-80
2023/09/03 05:27:33;;;;;;;14.57;12.18;;;14.50;99.90;;;;;;4982509;28;36582;-82
2023/09/03 05:29:59;;;;;;;15.05;11.65;;;14.50;99.90;;;;;;4965909;28;37790;-79
2023/09/03 05:32:25;;;;;;;12.95;10.73;;;14.50;99.90;;;;;;4991656;28;37489;-79
2023/09/03 05:34:51;;;;;;;13.35;11.63;;;14.50;99.90;;;;;;4982596;28;37665;-81
2023/09/03 05:37:18;;;;;;;12.18;10.88;;;14.50;99.90;;;;;;4975434;28;38212;-78
2023/09/03 05:39:44;;;;;;;14.20;11.63;;;14.50;99.90;;;;;;4988104;28;36307;-78
2023/09/03 05:42:10;;;;;;;14.23;11.40;;;14.50;99.90;;;;;;4991860;28;37144;-78
2023/09/03 05:44:36;;;;;;;13.00;11.60;;;14.60;99.90;;;;;;4976559;28;37592;-81
2023/09/03 05:47:02;;;;;;;15.27;11.52;;;14.60;99.90;;;;;;5002808;28;36239;-78
2023/09/03 05:49:28;;;;;;;15.77;12.40;;;14.60;99.90;;;;;;4989964;28;37977;-80
2023/09/03 05:51:55;;;;;;;13.43;11.65;;;14.60;99.90;;;;;;4968358;28;38898;-78
2023/09/03 05:54:21;;;;;;;12.60;11.27;;;14.60;99.90;;;;;;4971240;28;36612;-79
2023/09/03 05:56:47;;;;;;;12.98;11.50;;;14.70;99.90;;;;;;4980351;28;37789;-79
2023/09/03 05:59:14;;;;;;;13.20;11.90;;;14.70;99.90;;;;;;4987113;28;38875;-78
2023/09/03 06:01:40;;;;;;;15.82;13.65;;;14.70;99.90;;;;;;4992955;28;38642;-79
2023/09/03 06:04:09;;;;;;;14.07;12.57;;;14.80;99.90;;;;;;4977825;28;36753;-81
2023/09/03 06:06:37;;;;;;;13.75;12.20;;;14.90;99.90;;;;;;4966882;28;37196;-82
2023/09/03 06:09:05;;;;;;;15.40;13.05;;;14.90;99.90;;;;;;4970268;28;39551;-82
2023/09/03 06:11:34;;;;;;;16.95;13.82;;;14.90;99.90;;;;;;4988830;28;37187;-79
2023/09/03 06:14:00;;;;;;;17.85;13.70;;;15.00;99.90;;;;;;4974293;28;37806;-82
2023/09/03 06:16:27;;;;;;;14.73;13.23;;;15.00;99.90;;;;;;4973489;28;37712;-81
2023/09/03 06:18:54;;;;;;;15.75;12.52;;;15.00;99.90;;;;;;4968210;28;37974;-82
2023/09/03 06:21:20;;;;;;;13.80;12.40;;;15.20;99.90;;;;;;4967035;28;37737;-81
2023/09/03 06:23:46;;;;;;;15.35;13.13;;;15.30;99.90;;;;;;4979239;28;37034;-81
2023/09/03 06:26:14;;;;;;;14.98;13.48;;;15.40;99.90;;;;;;4984621;28;36235;-79
2023/09/03 06:28:40;;;;;;;16.77;14.30;;;15.50;99.90;;;;;;4969938;28;38547;-79
2023/09/03 06:31:06;;;;;;;17.83;14.40;;;15.50;99.90;;;;;;4964125;28;38554;-83
2023/09/03 06:33:32;;;;;;;18.23;15.25;;;15.60;99.90;;;;;;4982006;28;36808;-83
2023/09/03 06:35:59;;;;;;;17.42;13.80;;;15.70;99.90;;;;;;4960261;28;37171;-79
2023/09/03 06:38:25;;;;;;;16.95;14.00;;;15.80;99.90;;;;;;4955339;28;40200;-78
2023/09/03 06:40:51;;;;;;;16.27;13.15;;;15.90;99.90;;;;;;4958594;28;38557;-79
2023/09/03 06:43:17;;;;;;;17.30;13.20;;;15.90;99.90;;;;;;4947721;28;36503;-79
2023/09/03 06:45:43;;;;;;;16.17;14.43;;;16.00;99.90;;;;;;4950955;28;37708;-78
2023/09/03 06:48:09;;;;;;;14.48;12.98;;;16.00;99.90;;;;;;4956852;28;38549;-78
2023/09/03 06:50:36;;;;;;;15.05;13.10;;;16.10;99.90;;;;;;4963280;28;38186;-78
2023/09/03 06:53:02;;;;;;;17.63;15.32;;;16.20;99.90;;;;;;4956801;28;36688;-80
2023/09/03 06:55:28;;;;;;;16.23;13.75;;;16.20;99.90;;;;;;4948793;28;38098;-78
2023/09/03 06:57:54;;;;;;;16.05;14.30;;;16.20;99.90;;;;;;4959307;28;37833;-78
2023/09/03 07:00:20;;;;;;;15.95;13.45;;;16.30;99.90;;;;;;4955375;28;40433;-79
2023/09/03 07:02:46;;;;;;;14.02;12.25;;;16.40;99.90;;;;;;4964631;28;36571;-77
2023/09/03 07:05:14;;;;;;;14.75;13.15;;;16.40;99.90;;;;;;4971318;28;36502;-80
2023/09/03 07:07:43;;;;;;;16.92;15.13;;;16.50;99.90;;;;;;4971742;28;37796;-78
2023/09/03 07:10:09;;;;;;;15.40;13.52;;;16.40;99.90;;;;;;4973769;28;35907;-78
2023/09/03 07:12:35;;;;;;;16.27;12.32;;;16.50;99.90;;;;;;4968038;28;38473;-78
2023/09/03 07:15:01;;;;;;;15.90;13.85;;;16.50;99.90;;;;;;4955429;28;38437;-81
2023/09/03 07:17:27;;;;;;;14.80;12.35;;;16.60;99.90;;;;;;4972233;28;37622;-76
2023/09/03 07:19:57;;;;;;;14.80;13.30;;;16.70;99.90;;;;;;4971140;28;39318;-83
2023/09/03 07:22:24;;;;;;;14.38;12.73;;;16.80;99.90;;;;;;4966831;28;37224;-85
2023/09/03 07:24:53;;;;;;;14.90;12.63;;;16.90;99.90;;;;;;4958020;28;38296;-83
2023/09/03 07:27:20;;;;;;;15.40;13.00;;;17.00;99.90;;;;;;4995358;28;38049;-80
2023/09/03 07:29:46;;;;;;;18.55;13.82;;;17.10;99.90;;;;;;4968007;28;38523;-82
2023/09/03 07:32:12;;;;;;;14.70;12.88;;;17.10;99.90;;;;;;4981428;28;36741;-81
2023/09/03 07:34:38;;;;;;;13.35;12.02;;;17.20;99.90;;;;;;4976736;28;36827;-78
2023/09/03 07:37:04;;;;;;;12.70;11.50;;;17.30;99.90;;;;;;4979646;28;37715;-79
2023/09/03 07:39:30;;;;;;;15.20;13.20;;;17.40;99.90;;;;;;4980242;28;37192;-77
2023/09/03 07:41:57;;;;;;;18.48;13.77;;;17.50;99.90;;;;;;4968803;28;36351;-77
2023/09/03 07:44:26;;;;;;;15.13;12.68;;;17.60;99.90;;;;;;4964991;28;37505;-80
2023/09/03 07:46:52;;;;;;;15.63;13.35;;;17.70;99.90;;;;;;4967112;28;38714;-84
2023/09/03 07:49:18;;;;;;;14.27;12.38;;;17.80;99.90;;;;;;4981905;28;37307;-84
2023/09/03 07:51:44;;;;;;;13.05;11.75;;;17.90;99.90;;;;;;4979689;28;37786;-84
2023/09/03 07:54:10;;;;;;;12.75;11.02;;;18.00;99.90;;;;;;4980370;28;37351;-83
2023/09/03 07:56:36;;;;;;;16.05;12.23;;;18.10;99.90;;;;;;4969727;28;37592;-84
2023/09/03 07:59:03;;;;;;;14.40;12.25;;;18.20;99.90;;;;;;4978802;28;37186;-83
2023/09/03 08:01:29;;;;;;;11.77;10.43;;;18.30;99.90;;;;;;4969762;28;37592;-81
2023/09/03 08:03:56;;;;;;;13.35;12.05;;;18.40;99.90;;;;;;4968314;28;36845;-83
2023/09/03 08:06:22;;;;;;;11.25;10.13;;;18.50;99.90;;;;;;4981076;28;38446;-82
2023/09/03 08:08:53;;;;;;;13.70;11.55;;;18.60;99.90;;;;;;4972554;28;37392;-82
2023/09/03 08:11:21;;;;;;;12.18;10.52;;;18.90;99.90;;;;;;4978731;28;37591;-82
2023/09/03 08:13:56;;;;;;;11.48;10.32;;;19.10;99.90;;;;;;4974718;28;37802;-79
2023/09/03 08:16:22;;;;;;;13.65;12.25;;;19.20;99.90;;;;;;4969385;28;38842;-81
2023/09/03 08:18:48;;;;;;;14.20;11.45;;;19.40;99.90;;;;;;4964733;28;37449;-83
2023/09/03 08:21:14;;;;;;;10.63;9.20;;;19.60;99.90;;;;;;4971181;28;36983;-86
2023/09/03 08:23:43;;;;;;;11.25;10.15;;;19.80;99.90;;;;;;4974986;28;38029;-84
2023/09/03 08:26:09;;;;;;;11.25;9.52;;;19.90;99.90;;;;;;4963170;28;38974;-77
2023/09/03 08:28:36;;;;;;;12.13;9.23;;;19.90;99.90;;;;;;4961464;28;40124;-77
2023/09/03 08:31:03;;;;;;;10.52;9.43;;;20.10;99.90;;;;;;4963312;28;38731;-77
2023/09/03 08:33:29;;;;;;;11.13;9.90;;;20.40;99.90;;;;;;4961658;28;37475;-77
2023/09/03 08:35:55;;;;;;;9.05;8.13;;;20.60;99.90;;;;;;4979505;28;38161;-77
2023/09/03 08:38:22;;;;;;;10.38;8.80;;;20.80;99.90;;;;;;4977391;28;38177;-77
2023/09/03 08:40:48;;;;;;;10.07;9.07;;;21.00;99.90;;;;;;4967082;28;37551;-77
2023/09/03 08:43:17;;;;;;;9.43;8.07;;;20.90;99.90;;;;;;4965934;28;36688;-81
2023/09/03 08:45:54;;;;;;;10.20;8.65;;;20.80;99.90;;;;;;4968039;28;39178;-78
2023/09/03 08:48:20;;;;;;;11.52;8.63;;;21.00;99.90;;;;;;4967515;28;39188;-81
2023/09/03 08:50:47;;;;;;;11.68;8.80;;;20.80;99.90;;;;;;4967147;28;36716;-80
2023/09/03 08:53:15;;;;;;;11.63;9.02;;;21.00;99.90;;;;;;4968957;28;37133;-81
2023/09/03 08:55:42;;;;;;;10.30;8.60;;;21.10;99.90;;;;;;4970592;28;37823;-81
2023/09/03 08:58:08;;;;;;;11.02;8.73;;;21.10;99.90;;;;;;4967992;28;39644;-81
2023/09/03 09:00:37;;;;;;;15.00;9.65;;;21.30;99.90;;;;;;4995998;28;36456;-80
2023/09/03 09:03:05;;;;;;;8.45;7.63;;;21.30;99.90;;;;;;4968798;28;37643;-80
2023/09/03 09:05:33;;;;;;;10.02;8.63;;;21.40;99.90;;;;;;4972424;28;38563;-80
2023/09/03 09:08:01;;;;;;;9.18;8.27;;;21.70;99.90;;;;;;4967857;28;39663;-80
2023/09/03 09:10:32;;;;;;;11.50;8.75;;;21.80;99.90;;;;;;4958912;28;47102;-79
2023/09/03 09:13:05;;;;;;;10.93;9.80;;;21.90;99.90;;;;;;4984550;28;37087;-82
2023/09/03 09:15:39;;;;;;;10.07;8.25;;;21.90;99.90;;;;;;4978168;28;47062;-80
2023/09/03 09:18:11;;;;;;;9.63;8.00;;;21.80;99.90;;;;;;4986030;28;37383;-81
2023/09/03 09:20:38;;;;;;;9.68;8.13;;;21.90;99.90;;;;;;4989274;28;35248;-80
2023/09/03 09:23:07;;;;;;;9.80;7.80;;;22.00;99.90;;;;;;4976072;28;37375;-80
2023/09/03 09:25:35;;;;;;;9.20;8.13;;;22.30;99.90;;;;;;4982266;28;38064;-80
2023/09/03 09:28:13;;;;;;;10.13;8.15;;;22.40;99.90;;;;;;4973106;28;37351;-79
2023/09/03 09:31:05;;;;;;;9.68;7.53;;;22.40;99.90;;;;;;4966052;28;38454;-81
2023/09/03 09:33:31;;;;;;;9.43;7.53;;;22.50;99.90;;;;;;4985077;28;47274;-81
2023/09/03 09:36:13;;;;;;;8.50;6.80;;;22.70;99.90;;;;;;4971900;28;38526;-81
2023/09/03 09:38:39;;;;;;;7.40;6.05;;;22.60;99.90;;;;;;4989957;28;48692;-82
2023/09/03 09:41:26;;;;;;;8.27;7.47;;;22.50;99.90;;;;;;4976970;28;38448;-82
2023/09/03 09:43:52;;;;;;;10.00;8.60;;;22.40;99.90;;;;;;4966864;28;36308;-81
2023/09/03 09:46:26;;;;;;;11.68;8.63;;;22.20;99.90;;;;;;4982092;28;38679;-85
2023/09/03 09:49:06;;;;;;;11.38;7.07;;;22.30;99.90;;;;;;4995172;28;38333;-83
2023/09/03 09:51:35;;;;;;;8.57;6.45;;;22.60;99.90;;;;;;4991052;28;47342;-84
2023/09/03 09:54:03;;;;;;;7.43;6.38;;;22.80;99.90;;;;;;4990813;28;36153;-83
2023/09/03 09:56:34;;;;;;;8.07;6.10;;;23.00;99.90;;;;;;4965945;28;38943;-82
2023/09/03 09:59:00;;;;;;;6.88;5.82;;;23.30;99.90;;;;;;4972193;28;37090;-81
2023/09/03 10:01:41;;;;;;;6.82;5.57;;;23.60;99.90;;;;;;4995856;28;48961;-83
2023/09/03 10:04:07;;;;;;;9.90;7.45;;;23.60;92.30;;;;;;4981907;28;37177;-84
2023/09/03 10:06:34;;;;;;;6.22;5.00;;;23.10;96.00;;;;;;4981257;28;38742;-85
2023/09/03 10:09:00;;;;;;;7.90;7.10;;;23.10;90.30;;;;;;4970913;28;38130;-80
2023/09/03 10:11:26;;;;;;;5.80;5.13;;;23.50;99.90;;;;;;4967361;28;37539;-80
2023/09/03 10:13:54;;;;;;;9.40;7.07;;;23.50;97.40;;;;;;4971585;28;37893;-82
2023/09/03 10:16:22;;;;;;;9.55;6.40;;;23.60;80.70;;;;;;4970793;28;38480;-78
2023/09/03 10:18:50;;;;;;;7.88;5.97;;;23.00;75.50;;;;;;4966248;28;36931;-79
2023/09/03 10:21:27;;;;;;;8.70;6.13;;;23.00;97.90;;;;;;4970782;28;37266;-79
2023/09/03 10:23:54;;;;;;;6.82;5.20;;;22.80;84.20;;;;;;4973529;28;36904;-82
2023/09/03 10:26:39;;;;;;;8.63;5.20;;;23.00;99.90;;;;;;4976127;28;39015;-83
2023/09/03 10:29:08;;;;;;;8.98;6.22;;;23.50;91.60;;;;;;4978150;28;38456;-81
2023/09/03 10:31:37;;;;;;;6.95;5.70;;;23.40;96.80;;;;;;4966862;28;38768;-83
2023/09/03 10:34:13;;;;;;;9.15;5.82;;;23.50;77.00;;;;;;4968785;28;36960;-81
2023/09/03 10:37:08;;;;;;;7.85;4.78;;;23.20;60.80;;;;;;4978988;28;38325;-81
2023/09/03 10:39:35;;;;;;;6.45;5.00;;;23.00;93.50;;;;;;4977784;28;47329;-80
2023/09/03 10:42:23;;;;;;;5.43;4.13;;;23.10;70.80;;;;;;4988205;28;36638;-81
2023/09/03 10:44:51;;;;;;;6.30;3.90;;;23.00;72.30;;;;;;4977159;28;37478;-81
2023/09/03 10:47:18;;;;;;;5.03;3.47;;;23.10;60.50;;;;;;4971365;28;37691;-81
2023/09/03 10:49:46;;;;;;;2.30;2.10;;;23.40;92.30;;;;;;4961905;28;39209;-81
2023/09/03 10:52:34;;;;;;;3.80;2.97;;;23.50;92.20;;;;;;4980881;28;37715;-81
2023/09/03 10:55:20;;;;;;;6.85;4.18;;;23.60;59.60;;;;;;4973086;28;36511;-82
2023/09/03 10:57:49;;;;;;;5.32;3.78;;;23.80;61.10;;;;;;4974317;28;38993;-82
2023/09/03 11:00:15;;;;;;;4.78;3.53;;;23.80;60.50;;;;;;4976233;28;38576;-82
2023/09/03 11:02:43;;;;;;;4.18;3.42;;;23.70;32.80;;;;;;4984857;28;36250;-82
2023/09/03 11:05:14;;;;;;;7.00;4.45;;;23.60;26.60;;;;;;4964318;28;37379;-79
2023/09/03 11:07:41;;;;;;;4.63;3.45;;;23.60;55.30;;;;;;4972822;28;39086;-81
2023/09/03 11:10:24;;;;;;;5.28;3.13;;;23.60;40.00;;;;;;4981253;28;37872;-82
2023/09/03 11:12:52;;;;;;;5.30;3.17;;;23.80;45.80;;;;;;4966431;28;38443;-81
2023/09/03 11:15:19;;;;;;;2.88;2.45;;;24.00;64.00;;;;;;4970497;28;36200;-82
2023/09/03 11:17:56;;;;;;;4.20;2.70;;;24.00;62.80;;;;;;4971371;28;39259;-83
2023/09/03 11:20:28;;;;;;;5.75;3.13;;;24.30;52.90;;;;;;4970111;28;38303;-83
2023/09/03 11:22:55;;;;;;;3.72;2.20;;;24.10;1.00;;;;;;4985109;28;36758;-76
2023/09/03 11:25:43;;;;;;;3.83;2.05;;;23.90;37.50;;;;;;4973001;28;37126;-79
2023/09/03 11:28:14;;;;;;;2.38;2.17;;;24.40;35.80;;;;;;4979036;28;38683;-79
2023/09/03 11:30:41;;;;;;;3.33;2.30;;;24.30;3.90;;;;;;4971363;28;38279;-80
2023/09/03 11:33:10;;;;;;;4.05;2.45;;;24.50;23.60;;;;;;4966635;28;38726;-80
2023/09/03 11:35:45;;;;;;;2.40;1.98;;;24.60;1.00;;;;;;4986590;28;37169;-81
2023/09/03 11:38:11;;;;;;;2.95;1.80;;;24.20;1.00;;;;;;4967553;28;39273;-80
2023/09/03 11:40:40;;;;;;;4.65;2.20;;;24.20;1.00;;;;;;4980518;28;38962;-79
2023/09/03 11:43:10;;;;;;;2.70;1.83;;;24.40;54.90;;;;;;4963856;28;37683;-81
2023/09/03 11:45:37;;;;;;;2.88;1.70;;;24.50;1.00;;;;;;4977531;28;36830;-80
2023/09/03 11:48:06;;;;;;;2.20;1.67;;;24.60;3.90;;;;;;4989300;28;41349;-80
2023/09/03 11:50:34;;;;;;;3.58;2.30;;;24.90;27.30;;;;;;4970322;28;37252;-81
2023/09/03 11:53:00;;;;;;;2.97;1.98;;;24.60;1.00;;;;;;4966181;28;38273;-80
2023/09/03 11:55:30;;;;;;;4.07;2.97;;;24.30;1.00;;;;;;4983658;28;37610;-80
2023/09/03 11:58:00;;;;;;;2.92;2.70;;;24.10;1.00;;;;;;4977023;28;37941;-80
2023/09/03 12:00:27;;;;;;;3.67;2.20;;;24.40;35.90;;;;;;4959294;28;37552;-80
2023/09/03 12:02:54;;;;;;;3.63;1.92;;;24.50;21.00;;;;;;4976620;28;37348;-81
2023/09/03 12:05:21;;;;;;;2.45;1.30;;;24.70;1.00;;;;;;4969098;28;36126;-81
2023/09/03 12:07:47;;;;;;;2.00;1.38;;;25.00;1.00;;;;;;4978920;28;38658;-80
2023/09/03 12:10:21;;;;;;;2.85;1.23;;;25.00;1.00;;;;;;4964870;28;37422;-80
2023/09/03 12:12:47;;;;;;;6.80;2.15;;;24.70;1.00;;;;;;4966757;28;37091;-80
2023/09/03 12:15:20;;;;;;;2.50;1.50;;;24.60;1.00;;;;;;4968892;28;35916;-80
2023/09/03 12:17:46;;;;;;;2.25;1.98;;;24.80;40.90;;;;;;4971735;28;39354;-80
2023/09/03 12:20:39;;;;;;;2.63;1.60;;;25.00;50.10;;;;;;4976166;28;36087;-80
2023/09/03 12:23:15;;;;;;;1.42;1.33;;;24.40;1.00;;;;;;4970300;28;36717;-79
2023/09/03 12:25:43;;;;;;;2.67;1.85;;;24.50;4.20;;;;;;4970598;28;38218;-78
2023/09/03 12:28:10;;;;;;;2.00;1.15;;;24.50;1.00;;;;;;4977544;28;38676;-80
2023/09/03 12:30:59;;;;;;;3.45;1.90;;;24.80;53.30;;;;;;4973668;28;38342;-81
2023/09/03 12:33:26;;;;;;;3.20;2.35;;;24.70;1.00;;;;;;4969867;28;37580;-78
2023/09/03 12:36:13;;;;;;;2.88;2.58;;;24.70;1.00;;;;;;4964921;28;37902;-78
2023/09/03 12:38:52;;;;;;;3.90;2.63;;;24.70;1.00;;;;;;4970518;28;48571;-78
2023/09/03 12:41:23;;;;;;;3.58;2.65;;;24.70;1.00;;;;;;4973909;28;38941;-78
2023/09/03 12:43:50;;;;;;;2.80;1.97;;;24.70;35.80;;;;;;4970043;28;37483;-78
2023/09/03 12:46:17;;;;;;;5.10;2.72;;;24.80;3.30;;;;;;4950594;28;37568;-78
2023/09/03 12:48:44;;;;;;;4.57;3.10;;;24.70;1.00;;;;;;4970061;28;38658;-78